To NAV CANADA Home Page Login to a new session Search on AWWS site Feedback and Comments Disclaimer Vers la page française équivalente Tips FAQ What's new on the site To the Forecasts and Observations / NOTAM section To "File a Flight Plan" website Publications and other links Update of the User's profile FIC Telephone Numbers My Weather Data Folder Route Weather Data Regional Weather Data Local Weather Data To the Forecasts and Observations / NOTAM section
Request Generated 02/10/2016 at 02:25:04 UTC . Weather information available at that time is displayed.

METAR/TAF

EARLTON/EARLTON (TIMISKAMING REGIONAL)/ON    (show WxCam)

SPECI CYXR 100220Z AUTO 33014G19KT 2 1/2SM -SN OVC025 M11/M13 A2963
RMK SLP055=
SPECI CYXR 100219Z AUTO 33015KT 2 1/2SM -SN OVC023 M11/M13 A2963 RMK
SLP055=
METAR CYXR 100200Z AUTO 32015KT 1 1/2SM -SN OVC019 M11/M13 A2963 RMK
SLP054=
SPECI CYXR 100136Z AUTO 32015G20KT 2 1/4SM -SN OVC019 M10/M12 A2963
RMK SLP053=
METAR CYXR 100100Z AUTO 32013G19KT 3SM -SN BKN016 OVC022 M09/M11
A2962 RMK SLP050=
SPECI CYXR 100049Z AUTO 32015G20KT 3SM -SN OVC014 M09/M11 A2962 RMK
SLP049=
SPECI CYXR 100046Z AUTO 32015G20KT 2 1/2SM -SN OVC014 M09/M11 A2962
RMK SLP049=
SPECI CYXR 100030Z AUTO 32014KT 2SM -SN FEW013 OVC022 M08/M10 A2961
RMK SLP048=
SPECI CYXR 100027Z AUTO 32014KT 2 1/4SM -SN SCT013 OVC027 M08/M10
A2961 RMK SLP048=
METAR CYXR 100000Z AUTO 33010KT 3SM -SN FEW017 OVC033 M07/M09 A2961
RMK SLP045=

*** REMARK        : Forecast period has ended; this was the last TAF issued
*** REMARQUE : La période de prévision est échue; ceci était le dernier TAF qui a été émis
TAF CYXR 091738Z 0918/1001 03006KT 6SM -SN SCT015 OVC030 TEMPO
0918/0923 2SM -SN OVC015
BECMG 0918/0920 36010KT
FM092300 36010KT 1SM -SHSN OVC012 TEMPO 0923/1001 3SM -SN
RMK FCST BASED ON AUTO OBS. NXT FCST WILL BE ISSUED AT 101245Z=
Your time UTC time
Weather data provided by Environment Canada and NAV CANADA